createdAt,value
2018-12-17T00:01:56.449Z,73.20
2018-12-17T00:04:24.722Z,84.90
2018-12-17T00:06:52.238Z,96.10
2018-12-17T00:09:19.757Z,89.07
2018-12-17T00:11:48.290Z,91.33
2018-12-17T00:14:16.046Z,106.07
2018-12-17T00:16:44.340Z,114.70
2018-12-17T00:19:11.845Z,109.27
2018-12-17T00:21:39.413Z,113.37
2018-12-17T00:24:06.940Z,127.43
2018-12-17T00:26:34.443Z,128.03
2018-12-17T00:29:01.965Z,136.57
2018-12-17T00:31:29.467Z,135.70
2018-12-17T00:33:57.682Z,130.47
2018-12-17T00:36:25.397Z,123.20
2018-12-17T00:38:53.023Z,122.33
2018-12-17T00:41:21.233Z,118.77
2018-12-17T00:43:49.073Z,120.80
2018-12-17T00:46:17.135Z,114.23
2018-12-17T00:48:45.774Z,115.77
2018-12-17T00:51:14.479Z,116.93
2018-12-17T00:53:42.999Z,109.63
2018-12-17T00:56:11.146Z,111.07
2018-12-17T00:58:38.860Z,107.93
2018-12-17T01:01:06.587Z,105.63
2018-12-17T01:03:34.292Z,105.70
2018-12-17T01:06:02.351Z,107.50
2018-12-17T01:08:29.873Z,105.60
2018-12-17T01:10:57.382Z,105.13
2018-12-17T01:13:24.874Z,101.27
2018-12-17T01:15:52.386Z,100.80
2018-12-17T01:18:19.911Z,102.53
2018-12-17T01:20:47.434Z,107.87
2018-12-17T01:23:14.988Z,121.87
2018-12-17T01:25:42.906Z,123.27
2018-12-17T01:28:10.521Z,126.37
2018-12-17T01:30:38.051Z,117.60
2018-12-17T01:33:05.558Z,116.07
2018-12-17T01:35:33.060Z,110.83
2018-12-17T01:38:00.564Z,108.90
2018-12-17T01:40:28.072Z,106.70
2018-12-17T01:42:55.591Z,100.43
2018-12-17T01:45:23.091Z,145.67
2018-12-17T01:47:50.730Z,150.10
2018-12-17T01:50:18.219Z,141.53
2018-12-17T01:52:45.716Z,156.70
2018-12-17T01:55:13.796Z,161.77
2018-12-17T01:57:41.301Z,159.47
2018-12-17T02:00:08.937Z,176.57
2018-12-17T02:02:36.435Z,189.07
2018-12-17T02:05:04.119Z,198.30
2018-12-17T02:07:31.855Z,199.17
2018-12-17T02:09:59.418Z,190.20
2018-12-17T02:12:27.266Z,186.43
2018-12-17T02:14:55.058Z,173.47
2018-12-17T02:17:22.935Z,181.87
2018-12-17T02:19:50.930Z,196.03
2018-12-17T02:22:18.913Z,194.17
2018-12-17T02:24:47.073Z,187.60
2018-12-17T02:27:15.133Z,185.40
2018-12-17T02:29:42.935Z,180.10
2018-12-17T02:32:11.024Z,185.47
2018-12-17T02:34:38.741Z,179.13
2018-12-17T02:37:06.457Z,179.00
2018-12-17T02:39:34.990Z,175.23
2018-12-17T02:42:02.507Z,168.57
2018-12-17T02:47:20.734Z,165.40
2018-12-17T02:49:48.258Z,159.30
2018-12-17T02:52:15.754Z,168.47
2018-12-17T02:54:43.249Z,140.70
2018-12-17T02:57:11.001Z,150.40
2018-12-17T02:59:38.500Z,155.00
2018-12-17T03:02:06.057Z,148.67
2018-12-17T03:04:33.581Z,145.17
2018-12-17T03:07:01.106Z,142.87
2018-12-17T03:09:28.594Z,145.37
2018-12-17T03:11:56.160Z,138.07
2018-12-17T03:14:23.678Z,140.70
2018-12-17T03:16:51.254Z,131.60
2018-12-17T03:19:18.764Z,131.43
2018-12-17T03:21:46.273Z,134.10
2018-12-17T03:24:13.763Z,131.87
2018-12-17T03:26:42.039Z,131.33
2018-12-17T03:29:09.545Z,128.53
2018-12-17T03:31:37.283Z,126.03
2018-12-17T03:34:04.908Z,124.50
2018-12-17T03:36:32.481Z,125.43
2018-12-17T03:39:00.004Z,124.10
2018-12-17T03:41:27.506Z,121.07
2018-12-17T03:43:55.017Z,121.73
2018-12-17T03:46:25.044Z,116.80
2018-12-17T03:48:54.157Z,116.30
2018-12-17T03:51:21.834Z,117.57
2018-12-17T03:53:49.338Z,116.97
2018-12-17T03:56:16.837Z,116.57
2018-12-17T03:58:44.485Z,109.77
2018-12-17T04:01:11.994Z,110.03
2018-12-17T04:03:39.509Z,108.43
2018-12-17T04:06:06.997Z,106.70
2018-12-17T04:08:34.559Z,106.77
2018-12-17T04:11:02.329Z,107.10
2018-12-17T04:13:29.839Z,105.30
2018-12-17T04:15:57.349Z,104.70
2018-12-17T04:18:25.433Z,101.90
2018-12-17T04:20:52.961Z,97.73
2018-12-17T04:23:20.444Z,97.33
2018-12-17T04:25:48.814Z,97.73
2018-12-17T04:28:16.326Z,98.60
2018-12-17T04:30:44.818Z,99.13
2018-12-17T04:33:12.514Z,97.87
2018-12-17T04:35:40.305Z,94.27
2018-12-17T04:38:08.068Z,94.60
2018-12-17T04:40:35.582Z,92.33
2018-12-17T04:43:03.754Z,91.80
2018-12-17T04:45:31.266Z,90.77
2018-12-17T04:47:58.772Z,92.93
2018-12-17T04:50:26.440Z,89.70
2018-12-17T04:55:28.411Z,88.60
2018-12-17T04:57:55.979Z,86.30
2018-12-17T05:00:23.673Z,85.83
2018-12-17T05:02:51.843Z,84.00
2018-12-17T05:05:19.333Z,84.07
2018-12-17T05:07:46.870Z,80.90
2018-12-17T05:10:14.363Z,83.67
2018-12-17T05:12:41.866Z,80.53
2018-12-17T05:15:09.459Z,79.53
2018-12-17T05:17:36.970Z,81.27
2018-12-17T05:20:04.477Z,75.57
2018-12-17T05:22:32.045Z,75.77
2018-12-17T05:24:59.552Z,74.73
2018-12-17T05:27:27.053Z,75.13
2018-12-17T05:29:54.550Z,73.83
2018-12-17T05:32:22.143Z,73.67
2018-12-17T05:34:49.664Z,72.03
2018-12-17T05:37:17.153Z,72.67
2018-12-17T05:39:44.663Z,69.30
2018-12-17T05:42:12.166Z,69.13
2018-12-17T05:44:39.916Z,66.77
2018-12-17T05:47:09.802Z,67.30
2018-12-17T05:49:41.683Z,66.70
2018-12-17T05:52:15.268Z,66.27
2018-12-17T05:54:43.127Z,66.73
2018-12-17T05:57:10.629Z,62.90
2018-12-17T05:59:38.178Z,63.67
2018-12-17T06:02:06.438Z,63.47
2018-12-17T06:04:34.009Z,62.40
2018-12-17T06:07:02.165Z,61.27
2018-12-17T06:09:30.100Z,60.07
2018-12-17T06:11:58.237Z,62.27
2018-12-17T06:14:25.728Z,57.87
2018-12-17T06:16:53.336Z,57.07
2018-12-17T06:19:21.613Z,58.47
2018-12-17T06:21:49.106Z,57.53
2018-12-17T06:24:16.612Z,56.17
2018-12-17T06:26:44.531Z,56.97
2018-12-17T06:29:12.030Z,58.07
2018-12-17T06:31:39.543Z,53.90
2018-12-17T06:34:07.177Z,55.73
2018-12-17T06:36:34.661Z,54.63
2018-12-17T06:39:02.301Z,54.63
2018-12-17T06:41:29.801Z,54.90
2018-12-17T06:43:57.312Z,52.13
2018-12-17T06:46:24.843Z,52.53
2018-12-17T06:48:52.330Z,50.33
2018-12-17T06:51:21.869Z,51.60
2018-12-17T06:53:49.373Z,50.57
2018-12-17T06:56:16.887Z,49.93
2018-12-17T06:58:44.741Z,51.63
2018-12-17T07:01:12.245Z,51.10
2018-12-17T07:03:39.748Z,49.10
2018-12-17T07:06:07.397Z,49.77
2018-12-17T07:08:34.893Z,49.80
2018-12-17T07:11:03.060Z,49.40
2018-12-17T07:13:30.858Z,47.53
2018-12-17T07:15:58.355Z,45.37
2018-12-17T07:18:25.853Z,51.47
2018-12-17T07:20:53.373Z,54.27
2018-12-17T07:23:21.382Z,68.27
2018-12-17T07:25:49.139Z,56.00
2018-12-17T07:28:16.673Z,56.13
2018-12-17T07:30:44.338Z,54.50
2018-12-17T07:33:11.851Z,53.77
2018-12-17T07:35:39.341Z,53.13
2018-12-17T07:38:06.873Z,53.97
2018-12-17T07:40:34.360Z,51.47
2018-12-17T07:43:01.857Z,53.10
2018-12-17T07:45:29.364Z,53.57
2018-12-17T07:47:56.861Z,58.63
2018-12-17T07:50:24.644Z,57.83
2018-12-17T07:52:52.476Z,57.73
2018-12-17T07:55:19.982Z,55.40
2018-12-17T07:57:48.127Z,57.17
2018-12-17T08:00:16.020Z,56.23
2018-12-17T08:02:43.541Z,58.92
2018-12-17T08:05:11.700Z,52.07
2018-12-17T08:07:39.209Z,50.63
2018-12-17T08:10:06.717Z,48.97
2018-12-17T08:12:34.504Z,61.43
2018-12-17T08:15:02.079Z,60.73
2018-12-17T08:17:30.389Z,58.17
2018-12-17T08:19:57.892Z,57.17
2018-12-17T08:22:25.652Z,57.20
2018-12-17T08:24:53.826Z,54.13
2018-12-17T08:27:21.340Z,53.63
2018-12-17T08:29:48.854Z,50.47
2018-12-17T08:32:16.358Z,48.50
2018-12-17T08:34:43.853Z,49.73
2018-12-17T08:37:11.374Z,47.53
2018-12-17T08:39:38.852Z,42.20
2018-12-17T08:42:06.339Z,44.80
2018-12-17T08:44:33.857Z,46.90
2018-12-17T08:47:01.368Z,50.13
2018-12-17T08:49:29.281Z,57.23
2018-12-17T08:51:56.809Z,59.00
2018-12-17T08:54:24.299Z,58.70
2018-12-17T08:56:51.786Z,52.73
2018-12-17T08:59:19.313Z,51.47
2018-12-17T09:01:46.813Z,49.37
2018-12-17T09:04:14.616Z,48.83
2018-12-17T09:06:42.135Z,45.83
2018-12-17T09:09:09.724Z,44.27
2018-12-17T09:11:37.224Z,44.40
2018-12-17T09:14:04.767Z,52.50
2018-12-17T09:16:32.248Z,56.20
2018-12-17T09:18:59.761Z,61.40
2018-12-17T09:21:27.265Z,62.50
2018-12-17T09:23:54.773Z,56.83
2018-12-17T09:26:22.347Z,51.37
2018-12-17T09:28:50.224Z,49.97
2018-12-17T09:31:17.709Z,49.53
2018-12-17T09:33:45.213Z,48.93
2018-12-17T09:36:13.077Z,52.50
2018-12-17T09:38:40.598Z,80.00
2018-12-17T09:41:08.121Z,95.73
2018-12-17T09:43:35.618Z,106.83
2018-12-17T09:46:03.127Z,108.40
2018-12-17T09:48:30.625Z,93.20
2018-12-17T09:50:58.142Z,96.67
2018-12-17T09:53:25.637Z,87.47
2018-12-17T09:55:53.139Z,69.67
2018-12-17T09:58:21.373Z,69.97
2018-12-17T10:00:48.862Z,66.53
2018-12-17T10:03:16.386Z,63.10
2018-12-17T10:05:43.985Z,73.23
2018-12-17T10:08:11.851Z,76.73
2018-12-17T10:10:39.718Z,78.80
2018-12-17T10:13:07.224Z,71.30
2018-12-17T10:15:43.073Z,71.27
2018-12-17T10:18:11.535Z,65.37
2018-12-17T10:20:39.026Z,66.60
2018-12-17T10:23:06.529Z,61.67
2018-12-17T10:25:34.827Z,62.20
2018-12-17T10:28:02.495Z,56.83
2018-12-17T10:30:32.649Z,81.53
2018-12-17T10:32:59.518Z,56.33
2018-12-17T10:35:27.381Z,59.87
2018-12-17T10:37:55.065Z,61.27
2018-12-17T10:40:23.096Z,60.83
2018-12-17T10:42:50.607Z,72.47
2018-12-17T10:45:18.113Z,98.63
2018-12-17T10:47:45.609Z,94.90
2018-12-17T10:50:13.122Z,86.50
2018-12-17T10:52:40.643Z,81.90
2018-12-17T10:55:08.155Z,84.43
2018-12-17T10:57:35.670Z,94.03
2018-12-17T11:00:04.525Z,101.67
2018-12-17T11:02:32.821Z,92.60
2018-12-17T11:05:04.116Z,82.10
2018-12-17T11:07:31.638Z,79.60
2018-12-17T11:09:59.130Z,75.63
2018-12-17T11:12:26.630Z,71.63
2018-12-17T11:14:54.266Z,70.10
2018-12-17T11:17:22.058Z,67.87
2018-12-17T11:19:49.568Z,77.87
2018-12-17T11:22:17.077Z,91.10
2018-12-17T11:24:44.606Z,105.20
2018-12-17T11:27:12.173Z,124.10
2018-12-17T11:29:39.669Z,119.30
2018-12-17T11:32:11.578Z,115.47
2018-12-17T11:34:36.944Z,114.83
2018-12-17T11:37:04.457Z,109.20
2018-12-17T11:39:31.995Z,106.13
2018-12-17T11:41:59.510Z,99.23
2018-12-17T11:44:27.391Z,100.20
2018-12-17T11:46:54.913Z,93.33
2018-12-17T11:49:22.477Z,88.60
2018-12-17T11:51:50.037Z,82.90
2018-12-17T11:54:17.540Z,82.53
2018-12-17T11:56:49.708Z,81.83
2018-12-17T11:59:17.224Z,89.60
2018-12-17T12:01:44.764Z,95.83
2018-12-17T12:04:13.368Z,104.23
2018-12-17T12:06:41.071Z,113.93
2018-12-17T12:09:08.577Z,106.60
2018-12-17T12:11:36.080Z,106.03
2018-12-17T12:14:03.585Z,104.73
2018-12-17T12:16:31.346Z,101.27
2018-12-17T12:18:58.864Z,106.60
2018-12-17T12:21:26.392Z,103.33
2018-12-17T12:23:53.907Z,98.90
2018-12-17T12:26:21.444Z,96.33
2018-12-17T12:28:48.951Z,93.13
2018-12-17T12:31:16.725Z,87.63
2018-12-17T12:33:45.352Z,87.07
2018-12-17T12:36:13.097Z,83.83
2018-12-17T12:38:40.596Z,81.33
2018-12-17T12:41:08.113Z,77.40
2018-12-17T12:43:35.858Z,79.40
2018-12-17T12:46:04.167Z,74.20
2018-12-17T12:48:31.662Z,82.20
2018-12-17T12:50:59.171Z,84.50
2018-12-17T12:53:26.961Z,75.90
2018-12-17T12:55:54.676Z,82.27
2018-12-17T12:58:22.342Z,78.17
2018-12-17T13:00:49.844Z,73.73
2018-12-17T13:03:17.434Z,72.40
2018-12-17T13:05:44.942Z,69.53
2018-12-17T13:08:13.324Z,65.57
2018-12-17T13:10:40.837Z,62.30
2018-12-17T13:13:08.434Z,64.37
2018-12-17T13:15:36.046Z,60.17
2018-12-17T13:18:03.530Z,61.73
2018-12-17T13:20:31.095Z,62.10
2018-12-17T13:22:58.613Z,57.53
2018-12-17T13:25:27.175Z,57.23
2018-12-17T13:27:54.689Z,54.80
2018-12-17T13:30:22.645Z,53.43
2018-12-17T13:32:50.141Z,52.93
2018-12-17T13:35:17.652Z,52.10
2018-12-17T13:37:45.149Z,50.13
2018-12-17T13:40:12.684Z,50.40
2018-12-17T13:42:40.178Z,48.87
2018-12-17T13:45:08.009Z,46.23
2018-12-17T13:47:35.578Z,45.57
2018-12-17T13:53:10.045Z,44.57
2018-12-17T13:55:37.564Z,44.93
2018-12-17T13:58:05.280Z,42.77
2018-12-17T14:00:32.787Z,42.00
2018-12-17T14:03:00.298Z,41.13
2018-12-17T14:05:27.813Z,40.27
2018-12-17T14:07:55.319Z,39.53
2018-12-17T14:10:28.843Z,38.10
2018-12-17T14:12:56.349Z,38.73
2018-12-17T14:15:25.831Z,37.87
2018-12-17T14:17:55.351Z,42.13
2018-12-17T14:20:28.605Z,43.30
2018-12-17T14:22:56.671Z,56.23
2018-12-17T14:25:24.208Z,59.83
2018-12-17T14:27:51.781Z,66.63
2018-12-17T14:30:19.325Z,66.13
2018-12-17T14:32:46.833Z,65.27
2018-12-17T14:35:14.336Z,62.20
2018-12-17T14:37:47.503Z,59.40
2018-12-17T14:40:14.999Z,75.00
2018-12-17T14:42:42.714Z,74.57
2018-12-17T14:45:10.288Z,77.30
2018-12-17T14:47:37.788Z,76.67
2018-12-17T14:50:05.474Z,72.50
2018-12-17T14:52:32.969Z,69.63
2018-12-17T14:55:00.509Z,68.73
2018-12-17T14:57:28.113Z,66.07
2018-12-17T14:59:55.610Z,65.50
2018-12-17T15:02:23.490Z,64.13
2018-12-17T15:04:50.987Z,62.00
2018-12-17T15:07:18.514Z,61.17
2018-12-17T15:09:46.034Z,60.03
2018-12-17T15:12:13.539Z,72.17
2018-12-17T15:14:41.086Z,70.73
2018-12-17T15:17:08.595Z,68.83
2018-12-17T15:19:36.109Z,72.33
2018-12-17T15:22:03.858Z,68.20
2018-12-17T15:24:31.373Z,69.73
2018-12-17T15:26:58.893Z,76.70
2018-12-17T15:29:26.458Z,71.70
2018-12-17T15:31:54.051Z,76.30
2018-12-17T15:34:21.614Z,82.47
2018-12-17T15:36:49.138Z,76.67
2018-12-17T15:39:16.646Z,75.27
2018-12-17T15:41:44.150Z,73.70
2018-12-17T15:44:11.670Z,74.73
2018-12-17T15:46:39.186Z,66.10
2018-12-17T15:49:06.697Z,65.93
2018-12-17T15:51:34.212Z,64.93
2018-12-17T15:54:01.716Z,60.57
2018-12-17T15:56:29.303Z,61.93
2018-12-17T15:58:57.178Z,57.37
2018-12-17T16:01:24.714Z,55.13
2018-12-17T16:03:52.250Z,61.03
2018-12-17T16:06:19.733Z,60.27
2018-12-17T16:08:47.266Z,95.00
2018-12-17T16:11:14.768Z,94.40
2018-12-17T16:13:42.273Z,92.57
2018-12-17T16:16:09.839Z,83.07
2018-12-17T16:18:37.445Z,79.87
2018-12-17T16:21:04.939Z,90.67
2018-12-17T16:23:32.569Z,89.27
2018-12-17T16:26:00.078Z,82.87
2018-12-17T16:28:27.598Z,85.03
2018-12-17T16:30:55.124Z,83.90
2018-12-17T16:33:29.683Z,81.37
2018-12-17T16:35:52.150Z,77.40
2018-12-17T16:38:19.669Z,84.50
2018-12-17T16:40:48.065Z,116.10
2018-12-17T16:43:15.590Z,126.40
2018-12-17T16:45:43.087Z,128.23
2018-12-17T16:48:10.616Z,133.53
2018-12-17T16:50:38.142Z,113.87
2018-12-17T16:53:05.656Z,102.53
2018-12-17T16:55:33.178Z,88.73
2018-12-17T16:58:00.674Z,92.83
2018-12-17T17:00:28.600Z,106.70
2018-12-17T17:02:56.106Z,94.80
2018-12-17T17:05:24.385Z,93.87
2018-12-17T17:07:51.896Z,96.47
2018-12-17T17:10:19.420Z,108.63
2018-12-17T17:12:46.951Z,114.43
2018-12-17T17:15:14.465Z,97.87
2018-12-17T17:17:41.978Z,104.73
2018-12-17T17:20:09.692Z,97.67
2018-12-17T17:22:37.411Z,111.47
2018-12-17T17:25:05.666Z,119.63
2018-12-17T17:27:33.188Z,129.80
2018-12-17T17:30:00.683Z,115.77
2018-12-17T17:32:28.218Z,121.83
2018-12-17T17:34:55.719Z,100.37
2018-12-17T17:37:23.220Z,98.10
2018-12-17T17:39:50.732Z,95.90
2018-12-17T17:42:18.265Z,90.20
2018-12-17T17:44:45.771Z,88.50
2018-12-17T17:47:13.293Z,86.13
2018-12-17T17:49:40.834Z,85.90
2018-12-17T17:52:08.361Z,85.80
2018-12-17T17:54:35.882Z,89.80
2018-12-17T17:57:03.404Z,92.27
2018-12-17T17:59:30.905Z,91.93
2018-12-17T18:01:58.421Z,89.73
2018-12-17T18:04:25.931Z,86.80
2018-12-17T18:06:53.990Z,83.47
2018-12-17T18:09:21.985Z,80.43
2018-12-17T18:11:49.492Z,78.97
2018-12-17T18:14:17.014Z,109.77
2018-12-17T18:16:44.529Z,97.37
2018-12-17T18:19:12.052Z,94.57
2018-12-17T18:21:39.554Z,89.87
2018-12-17T18:24:07.073Z,92.23
2018-12-17T18:26:34.641Z,87.37
2018-12-17T18:29:02.822Z,87.87
2018-12-17T18:31:30.470Z,101.40
2018-12-17T18:33:57.986Z,99.83
2018-12-17T18:36:25.491Z,95.77
2018-12-17T18:38:53.794Z,86.17
2018-12-17T18:41:21.294Z,77.53
2018-12-17T18:43:49.122Z,79.07
2018-12-17T18:46:16.632Z,90.27
2018-12-17T18:48:44.213Z,135.87
2018-12-17T18:51:11.805Z,115.33
2018-12-17T18:53:39.348Z,124.73
2018-12-17T18:56:06.869Z,124.97
2018-12-17T18:58:35.177Z,125.07
2018-12-17T19:01:02.841Z,122.47
2018-12-17T19:03:30.339Z,109.83
2018-12-17T19:05:57.846Z,110.30
2018-12-17T19:08:25.456Z,104.43
2018-12-17T19:10:52.971Z,105.43
2018-12-17T19:13:20.495Z,120.20
2018-12-17T19:15:48.015Z,112.40
2018-12-17T19:18:15.547Z,106.63
2018-12-17T19:20:43.049Z,103.00
2018-12-17T19:23:10.598Z,104.57
2018-12-17T19:25:38.118Z,104.07
2018-12-17T19:28:05.668Z,96.67
2018-12-17T19:30:33.168Z,95.77
2018-12-17T19:33:00.694Z,92.87
2018-12-17T19:35:28.210Z,89.00
2018-12-17T19:37:55.727Z,86.00
2018-12-17T19:40:23.244Z,82.17
2018-12-17T19:42:50.775Z,82.90
2018-12-17T19:45:19.581Z,78.73
2018-12-17T19:47:48.100Z,86.57
2018-12-17T19:50:15.626Z,93.73
2018-12-17T19:52:44.976Z,83.93
2018-12-17T19:55:13.837Z,85.17
2018-12-17T19:57:42.051Z,79.17
2018-12-17T20:00:11.799Z,73.17
2018-12-17T20:02:47.007Z,80.23
2018-12-17T20:05:11.390Z,69.33
2018-12-17T20:07:38.941Z,72.77
2018-12-17T20:10:08.418Z,75.50
2018-12-17T20:12:35.980Z,90.87
2018-12-17T20:15:04.440Z,86.73
2018-12-17T20:17:31.950Z,78.73
2018-12-17T20:19:59.452Z,92.43
2018-12-17T20:22:27.013Z,83.87
2018-12-17T20:24:54.546Z,87.50
2018-12-17T20:27:22.056Z,78.87
2018-12-17T20:29:50.476Z,100.90
2018-12-17T20:32:18.666Z,102.93
2018-12-17T20:34:46.171Z,92.40
2018-12-17T20:37:13.724Z,93.43
2018-12-17T20:39:41.474Z,89.37
2018-12-17T20:42:09.347Z,85.87
2018-12-17T20:44:36.918Z,88.67
2018-12-17T20:47:05.051Z,79.60
2018-12-17T20:49:32.564Z,78.03
2018-12-17T20:52:00.150Z,72.57
2018-12-17T20:54:27.654Z,72.57
2018-12-17T20:56:55.158Z,73.37
2018-12-17T20:59:22.690Z,73.67
2018-12-17T21:01:50.192Z,73.67
2018-12-17T21:04:17.726Z,71.10
2018-12-17T21:06:49.814Z,72.00
2018-12-17T21:09:14.761Z,71.30
2018-12-17T21:11:42.261Z,104.80
2018-12-17T21:14:09.774Z,107.30
2018-12-17T21:16:37.286Z,92.03
2018-12-17T21:19:04.792Z,90.50
2018-12-17T21:21:32.289Z,91.87
2018-12-17T21:23:59.831Z,85.90
2018-12-17T21:26:27.333Z,92.37
2018-12-17T21:28:55.914Z,90.27
2018-12-17T21:31:23.575Z,92.53
2018-12-17T21:33:51.162Z,84.90
2018-12-17T21:36:18.703Z,84.37
2018-12-17T21:38:46.201Z,85.80
2018-12-17T21:41:13.826Z,104.87
2018-12-17T21:43:41.329Z,104.90
2018-12-17T21:46:08.835Z,97.50
2018-12-17T21:48:36.634Z,96.43
2018-12-17T21:51:04.175Z,91.13
2018-12-17T21:53:31.683Z,89.27
2018-12-17T21:55:59.193Z,83.47
2018-12-17T21:58:26.702Z,86.43
2018-12-17T22:00:54.997Z,83.40
2018-12-17T22:03:22.510Z,80.77
2018-12-17T22:05:50.012Z,83.17
2018-12-17T22:08:17.849Z,81.80
2018-12-17T22:10:45.374Z,78.27
2018-12-17T22:13:12.930Z,76.13
2018-12-17T22:15:40.424Z,73.07
2018-12-17T22:18:08.288Z,84.13
2018-12-17T22:20:35.830Z,97.63
2018-12-17T22:23:03.325Z,97.27
2018-12-17T22:25:30.847Z,98.30
2018-12-17T22:27:58.369Z,94.60
2018-12-17T22:30:25.880Z,91.17
2018-12-17T22:32:53.651Z,89.80
2018-12-17T22:35:21.612Z,87.80
2018-12-17T22:37:49.577Z,87.17
2018-12-17T22:40:17.566Z,82.67
2018-12-17T22:42:45.171Z,85.63
2018-12-17T22:45:12.676Z,82.47
2018-12-17T22:47:40.246Z,79.47
2018-12-17T22:50:08.061Z,78.87
2018-12-17T22:52:35.545Z,72.77
2018-12-17T22:55:03.138Z,74.93
2018-12-17T22:57:30.629Z,73.60
2018-12-17T22:59:58.134Z,74.00
2018-12-17T23:02:25.646Z,99.80
2018-12-17T23:04:53.157Z,90.97
2018-12-17T23:07:20.668Z,97.53
2018-12-17T23:10:00.139Z,98.03
2018-12-17T23:12:39.595Z,94.87
2018-12-17T23:15:18.999Z,92.43
2018-12-17T23:17:46.589Z,92.10
2018-12-17T23:20:14.113Z,90.33
2018-12-17T23:22:42.502Z,88.67
2018-12-17T23:25:10.113Z,86.93
2018-12-17T23:27:37.652Z,85.37
2018-12-17T23:30:06.566Z,84.83
2018-12-17T23:32:34.150Z,79.03
2018-12-17T23:35:01.652Z,77.93
2018-12-17T23:37:29.615Z,71.30
2018-12-17T23:39:57.142Z,77.60
2018-12-17T23:42:24.632Z,70.83
2018-12-17T23:44:52.148Z,74.67
2018-12-17T23:47:19.653Z,77.03
2018-12-17T23:49:47.179Z,73.47
2018-12-17T23:52:14.669Z,70.03
2018-12-17T23:54:42.228Z,70.33
2018-12-17T23:57:09.743Z,69.17
2018-12-17T23:59:37.231Z,66.27
